createdAt,value
2023-03-17T00:01:56.858Z,2.63
2023-03-17T00:04:26.286Z,2.80
2023-03-17T00:06:54.494Z,2.72
2023-03-17T00:09:22.672Z,2.85
2023-03-17T00:11:50.361Z,2.80
2023-03-17T00:14:18.125Z,2.90
2023-03-17T00:16:50.026Z,2.67
2023-03-17T00:19:33.338Z,3.17
2023-03-17T00:22:03.280Z,3.20
2023-03-17T00:24:31.458Z,2.58
2023-03-17T00:26:58.893Z,3.05
2023-03-17T00:29:26.942Z,2.65
2023-03-17T00:31:57.073Z,2.33
2023-03-17T00:34:23.945Z,2.78
2023-03-17T00:36:52.454Z,2.53
2023-03-17T00:39:19.899Z,2.70
2023-03-17T00:41:50.359Z,2.70
2023-03-17T00:44:17.512Z,2.17
2023-03-17T00:46:44.749Z,2.33
2023-03-17T00:49:23.477Z,2.33
2023-03-17T00:51:51.445Z,2.80
2023-03-17T00:54:21.385Z,2.30
2023-03-17T00:56:50.939Z,2.90
2023-03-17T00:59:37.262Z,2.50
2023-03-17T01:02:04.366Z,2.47
2023-03-17T01:04:31.260Z,2.72
2023-03-17T01:06:59.351Z,2.80
2023-03-17T01:09:28.425Z,2.65
2023-03-17T01:11:57.665Z,2.60
2023-03-17T01:14:24.857Z,2.50
2023-03-17T01:16:55.474Z,2.78
2023-03-17T01:19:23.035Z,3.10
2023-03-17T01:21:50.250Z,2.10
2023-03-17T01:24:17.066Z,2.60
2023-03-17T01:26:44.593Z,2.90
2023-03-17T01:29:12.224Z,3.05
2023-03-17T01:31:39.369Z,3.33
2023-03-17T01:34:06.351Z,2.38
2023-03-17T01:36:34.327Z,2.67
2023-03-17T01:39:01.589Z,2.60
2023-03-17T01:41:28.407Z,2.55
2023-03-17T01:43:55.220Z,2.03
2023-03-17T01:46:29.188Z,2.90
2023-03-17T01:49:06.857Z,2.55
2023-03-17T01:51:52.669Z,2.38
2023-03-17T01:55:11.559Z,2.60
2023-03-17T01:57:51.170Z,2.80
2023-03-17T02:00:24.115Z,2.63
2023-03-17T02:02:56.615Z,2.55
2023-03-17T02:05:33.452Z,2.35
2023-03-17T02:08:14.547Z,2.50
2023-03-17T02:10:43.432Z,2.30
2023-03-17T02:13:14.189Z,2.42
2023-03-17T02:15:51.759Z,2.85
2023-03-17T02:18:23.644Z,2.60
2023-03-17T02:20:56.819Z,2.50
2023-03-17T02:23:24.765Z,2.22
2023-03-17T02:25:54.119Z,2.22
2023-03-17T02:28:30.128Z,2.22
2023-03-17T02:30:57.906Z,2.35
2023-03-17T02:33:24.807Z,2.05
2023-03-17T02:35:55.102Z,2.30
2023-03-17T02:38:22.222Z,2.60
2023-03-17T02:40:49.262Z,2.33
2023-03-17T02:43:16.754Z,2.20
2023-03-17T02:45:43.617Z,2.10
2023-03-17T02:48:12.050Z,2.45
2023-03-17T02:50:39.029Z,2.45
2023-03-17T02:53:06.729Z,2.30
2023-03-17T02:55:33.790Z,2.20
2023-03-17T02:58:03.137Z,2.40
2023-03-17T03:00:30.318Z,2.17
2023-03-17T03:02:57.336Z,2.40
2023-03-17T03:05:24.824Z,2.10
2023-03-17T03:07:52.304Z,2.13
2023-03-17T03:10:19.394Z,1.95
2023-03-17T03:12:47.365Z,2.33
2023-03-17T03:15:14.633Z,1.90
2023-03-17T03:17:42.039Z,2.30
2023-03-17T03:20:11.459Z,2.53
2023-03-17T03:22:38.969Z,2.53
2023-03-17T03:25:08.699Z,2.28
2023-03-17T03:27:36.075Z,2.17
2023-03-17T03:30:04.377Z,2.30
2023-03-17T03:32:31.552Z,2.50
2023-03-17T03:34:58.506Z,2.15
2023-03-17T03:37:26.016Z,1.70
2023-03-17T03:39:53.008Z,2.20
2023-03-17T03:42:19.811Z,2.13
2023-03-17T03:44:46.635Z,2.45
2023-03-17T03:47:13.460Z,2.70
2023-03-17T03:49:40.292Z,2.15
2023-03-17T03:52:07.811Z,2.10
2023-03-17T03:54:35.172Z,2.45
2023-03-17T03:57:03.782Z,2.20
2023-03-17T03:59:30.748Z,2.53
2023-03-17T04:01:57.624Z,2.33
2023-03-17T04:04:24.485Z,2.17
2023-03-17T04:06:51.321Z,2.08
2023-03-17T04:09:18.229Z,2.58
2023-03-17T04:11:45.029Z,2.30
2023-03-17T04:14:11.885Z,2.65
2023-03-17T04:16:38.667Z,2.63
2023-03-17T04:19:05.775Z,2.65
2023-03-17T04:21:33.192Z,3.00
2023-03-17T04:24:05.219Z,2.60
2023-03-17T04:26:32.587Z,2.47
2023-03-17T04:28:59.421Z,2.65
2023-03-17T04:31:26.401Z,2.40
2023-03-17T04:33:53.480Z,2.78
2023-03-17T04:36:23.187Z,2.55
2023-03-17T04:38:50.015Z,3.05
2023-03-17T04:41:16.977Z,2.90
2023-03-17T04:43:43.765Z,2.40
2023-03-17T04:46:10.997Z,2.75
2023-03-17T04:48:38.045Z,2.40
2023-03-17T04:51:05.355Z,2.90
2023-03-17T04:53:32.592Z,2.20
2023-03-17T04:55:59.472Z,2.63
2023-03-17T04:58:30.808Z,2.40
2023-03-17T05:00:58.790Z,2.45
2023-03-17T05:03:27.771Z,2.80
2023-03-17T05:05:55.578Z,2.58
2023-03-17T05:08:22.598Z,2.70
2023-03-17T05:10:49.598Z,3.17
2023-03-17T05:13:16.867Z,2.63
2023-03-17T05:15:52.862Z,2.67
2023-03-17T05:18:21.689Z,2.50
2023-03-17T05:20:48.470Z,2.35
2023-03-17T05:23:15.324Z,2.53
2023-03-17T05:25:42.515Z,2.63
2023-03-17T05:28:10.204Z,2.88
2023-03-17T05:30:37.842Z,3.03
2023-03-17T05:33:06.070Z,2.47
2023-03-17T05:35:33.115Z,3.00
2023-03-17T05:38:00.055Z,2.95
2023-03-17T05:40:27.163Z,3.08
2023-03-17T05:42:54.030Z,2.95
2023-03-17T05:45:20.837Z,3.28
2023-03-17T05:47:47.675Z,3.08
2023-03-17T05:50:14.960Z,2.78
2023-03-17T05:52:41.928Z,2.97
2023-03-17T05:55:09.534Z,3.38
2023-03-17T05:57:36.673Z,3.40
2023-03-17T06:00:05.282Z,2.95
2023-03-17T06:02:32.665Z,3.22
2023-03-17T06:04:59.683Z,3.15
2023-03-17T06:07:28.392Z,2.90
2023-03-17T06:09:58.169Z,3.85
2023-03-17T06:12:25.831Z,3.20
2023-03-17T06:14:52.957Z,2.75
2023-03-17T06:17:22.160Z,2.42
2023-03-17T06:19:49.528Z,3.13
2023-03-17T06:22:16.848Z,2.47
2023-03-17T06:24:43.978Z,2.65
2023-03-17T06:27:11.072Z,2.90
2023-03-17T06:29:38.135Z,3.15
2023-03-17T06:32:19.194Z,4.10
2023-03-17T06:34:47.452Z,3.50
2023-03-17T06:37:14.659Z,3.05
2023-03-17T06:39:42.267Z,3.60
2023-03-17T06:42:09.309Z,3.03
2023-03-17T06:44:37.170Z,3.60
2023-03-17T06:47:04.912Z,2.95
2023-03-17T06:49:32.529Z,2.55
2023-03-17T06:51:59.828Z,3.58
2023-03-17T06:54:26.977Z,3.20
2023-03-17T06:56:53.873Z,2.88
2023-03-17T06:59:22.781Z,2.80
2023-03-17T07:01:50.389Z,3.10
2023-03-17T07:04:17.348Z,3.60
2023-03-17T07:06:44.913Z,3.25
2023-03-17T07:09:11.969Z,3.05
2023-03-17T07:11:39.190Z,3.13
2023-03-17T07:14:06.753Z,3.63
2023-03-17T07:16:33.982Z,3.40
2023-03-17T07:19:02.095Z,3.58
2023-03-17T07:21:29.271Z,3.63
2023-03-17T07:23:56.316Z,3.50
2023-03-17T07:26:23.223Z,3.20
2023-03-17T07:28:50.175Z,3.40
2023-03-17T07:31:17.146Z,3.60
2023-03-17T07:33:44.000Z,3.38
2023-03-17T07:36:11.068Z,3.35
2023-03-17T07:38:38.323Z,3.45
2023-03-17T07:41:09.727Z,3.90
2023-03-17T07:43:38.058Z,3.58
2023-03-17T07:46:06.555Z,3.67
2023-03-17T07:48:34.334Z,3.47
2023-03-17T07:51:01.507Z,3.60
2023-03-17T07:53:28.409Z,3.38
2023-03-17T07:55:55.232Z,3.30
2023-03-17T07:58:22.129Z,3.38
2023-03-17T08:00:49.083Z,3.85
2023-03-17T08:03:15.875Z,4.40
2023-03-17T08:05:42.925Z,3.40
2023-03-17T08:08:10.691Z,4.00
2023-03-17T08:10:37.542Z,3.22
2023-03-17T08:13:04.702Z,4.40
2023-03-17T08:15:31.527Z,3.53
2023-03-17T08:17:58.400Z,3.38
2023-03-17T08:20:25.311Z,3.35
2023-03-17T08:22:52.119Z,3.50
2023-03-17T08:25:18.906Z,4.00
2023-03-17T08:27:45.726Z,4.15
2023-03-17T08:30:13.586Z,4.20
2023-03-17T08:32:41.167Z,4.00
2023-03-17T08:35:11.776Z,4.40
2023-03-17T08:37:38.614Z,3.72
2023-03-17T08:40:06.162Z,3.55
2023-03-17T08:42:32.950Z,4.03
2023-03-17T08:44:59.874Z,3.80
2023-03-17T08:47:27.407Z,3.47
2023-03-17T08:49:56.294Z,3.72
2023-03-17T08:52:23.230Z,4.07
2023-03-17T08:54:50.591Z,3.95
2023-03-17T08:57:18.062Z,3.50
2023-03-17T08:59:47.508Z,3.75
2023-03-17T09:02:15.905Z,3.53
2023-03-17T09:04:42.903Z,3.85
2023-03-17T09:07:10.424Z,3.55
2023-03-17T09:09:38.028Z,4.03
2023-03-17T09:12:07.396Z,3.88
2023-03-17T09:14:43.474Z,3.83
2023-03-17T09:17:13.800Z,3.63
2023-03-17T09:19:41.558Z,3.78
2023-03-17T09:22:13.497Z,3.55
2023-03-17T09:24:40.446Z,4.72
2023-03-17T09:27:07.569Z,3.58
2023-03-17T09:29:34.788Z,3.97
2023-03-17T09:32:01.657Z,3.38
2023-03-17T09:34:28.495Z,3.83
2023-03-17T09:36:55.519Z,3.92
2023-03-17T09:39:24.116Z,3.92
2023-03-17T09:42:19.267Z,3.78
2023-03-17T09:45:27.026Z,3.92
2023-03-17T09:48:02.991Z,4.07
2023-03-17T09:50:53.447Z,3.85
2023-03-17T09:53:35.860Z,3.67
2023-03-17T09:56:13.227Z,4.45
2023-03-17T09:58:55.257Z,4.10
2023-03-17T10:01:23.165Z,4.03
2023-03-17T10:03:50.959Z,3.80
2023-03-17T10:06:38.822Z,4.60
2023-03-17T10:09:20.619Z,4.28
2023-03-17T10:11:54.837Z,4.25
2023-03-17T10:14:38.583Z,3.92
2023-03-17T10:17:19.201Z,3.40
2023-03-17T10:19:58.194Z,4.15
2023-03-17T10:22:38.408Z,3.20
2023-03-17T10:25:15.432Z,3.75
2023-03-17T10:27:51.594Z,3.88
2023-03-17T10:30:22.385Z,4.10
2023-03-17T10:32:52.426Z,3.92
2023-03-17T10:35:22.110Z,3.88
2023-03-17T10:37:49.286Z,4.95
2023-03-17T10:40:28.684Z,4.32
2023-03-17T10:43:08.687Z,4.53
2023-03-17T10:45:46.352Z,4.78
2023-03-17T10:48:20.102Z,3.95
2023-03-17T10:50:49.373Z,4.65
2023-03-17T10:53:29.410Z,4.32
2023-03-17T10:56:09.874Z,4.13
2023-03-17T10:58:53.554Z,4.50
2023-03-17T11:01:29.722Z,4.32
2023-03-17T11:03:57.710Z,4.03
2023-03-17T11:06:43.921Z,4.45
2023-03-17T11:09:18.484Z,4.28
2023-03-17T11:11:49.914Z,3.80
2023-03-17T11:14:19.699Z,4.10
2023-03-17T11:16:54.452Z,4.75
2023-03-17T11:19:52.329Z,4.38
2023-03-17T11:22:40.438Z,4.10
2023-03-17T11:25:19.938Z,4.78
2023-03-17T11:27:56.719Z,4.60
2023-03-17T11:30:43.668Z,4.30
2023-03-17T11:33:41.674Z,3.83
2023-03-17T11:36:36.232Z,3.92
2023-03-17T11:39:35.281Z,4.22
2023-03-17T11:42:15.522Z,3.83
2023-03-17T11:45:11.703Z,3.92
2023-03-17T11:48:11.713Z,5.25
2023-03-17T11:50:48.498Z,3.75
2023-03-17T11:53:21.726Z,4.53
2023-03-17T11:55:57.781Z,3.85
2023-03-17T11:58:39.460Z,3.60
2023-03-17T12:01:12.134Z,3.80
2023-03-17T12:04:09.640Z,3.95
2023-03-17T12:06:50.732Z,4.00
2023-03-17T12:09:30.791Z,4.32
2023-03-17T12:12:01.380Z,4.55
2023-03-17T12:14:52.425Z,4.38
2023-03-17T12:17:39.334Z,3.95
2023-03-17T12:20:28.140Z,4.10
2023-03-17T12:23:06.641Z,4.15
2023-03-17T12:25:57.758Z,4.00
2023-03-17T12:28:38.811Z,4.30
2023-03-17T12:31:17.653Z,4.60
2023-03-17T12:34:07.821Z,4.15
2023-03-17T12:36:38.123Z,4.22
2023-03-17T12:39:19.005Z,4.00
2023-03-17T12:42:25.409Z,4.13
2023-03-17T12:45:14.953Z,5.05
2023-03-17T12:48:00.061Z,4.20
2023-03-17T12:50:49.149Z,4.10
2023-03-17T12:53:30.113Z,4.45
2023-03-17T12:56:28.772Z,4.35
2023-03-17T12:59:05.847Z,3.88
2023-03-17T13:02:13.040Z,4.30
2023-03-17T13:05:00.843Z,4.45
2023-03-17T13:07:54.776Z,3.92
2023-03-17T13:10:39.853Z,4.18
2023-03-17T13:13:13.044Z,4.20
2023-03-17T13:15:40.398Z,4.53
2023-03-17T13:18:29.668Z,4.45
2023-03-17T13:20:56.680Z,4.57
2023-03-17T13:23:46.296Z,4.57
2023-03-17T13:26:20.140Z,4.18
2023-03-17T13:28:51.022Z,4.20
2023-03-17T13:31:27.194Z,4.78
2023-03-17T13:34:03.028Z,4.32
2023-03-17T13:36:59.054Z,4.43
2023-03-17T13:39:46.119Z,4.80
2023-03-17T13:43:15.379Z,4.40
2023-03-17T13:45:44.815Z,4.57
2023-03-17T13:48:38.059Z,4.70
2023-03-17T13:51:08.583Z,5.35
2023-03-17T13:53:41.290Z,5.38
2023-03-17T13:56:22.420Z,5.13
2023-03-17T13:59:05.974Z,5.05
2023-03-17T14:01:42.169Z,4.65
2023-03-17T14:04:44.746Z,4.55
2023-03-17T14:07:20.391Z,5.32
2023-03-17T14:09:48.511Z,4.97
2023-03-17T14:12:29.589Z,4.13
2023-03-17T14:15:12.133Z,4.82
2023-03-17T14:17:48.894Z,4.45
2023-03-17T14:20:15.814Z,4.82
2023-03-17T14:22:47.389Z,4.65
2023-03-17T14:25:24.089Z,4.70
2023-03-17T14:27:57.872Z,4.82
2023-03-17T14:30:34.776Z,5.07
2023-03-17T14:33:13.931Z,4.85
2023-03-17T14:35:43.556Z,5.28
2023-03-17T14:38:25.385Z,4.60
2023-03-17T14:41:15.511Z,5.38
2023-03-17T14:43:44.486Z,4.97
2023-03-17T14:46:26.196Z,4.57
2023-03-17T14:49:21.316Z,5.65
2023-03-17T14:51:57.286Z,5.50
2023-03-17T14:54:31.477Z,5.28
2023-03-17T14:57:07.597Z,5.03
2023-03-17T14:59:38.874Z,5.22
2023-03-17T15:02:28.529Z,4.90
2023-03-17T15:05:26.429Z,4.40
2023-03-17T15:07:53.946Z,4.93
2023-03-17T15:10:25.939Z,4.78
2023-03-17T15:13:06.319Z,4.20
2023-03-17T15:15:37.891Z,3.90
2023-03-17T15:18:13.098Z,4.97
2023-03-17T15:20:44.320Z,4.43
2023-03-17T15:23:25.130Z,4.32
2023-03-17T15:25:57.276Z,4.68
2023-03-17T15:28:31.585Z,4.10
2023-03-17T15:31:13.524Z,4.50
2023-03-17T15:33:42.469Z,4.15
2023-03-17T15:36:31.212Z,3.60
2023-03-17T15:38:58.955Z,3.83
2023-03-17T15:41:26.147Z,4.63
2023-03-17T15:43:53.699Z,3.90
2023-03-17T15:46:27.780Z,3.97
2023-03-17T15:48:55.161Z,4.13
2023-03-17T15:51:22.683Z,3.83
2023-03-17T15:53:49.542Z,4.60
2023-03-17T15:56:20.471Z,4.45
2023-03-17T15:58:52.460Z,4.25
2023-03-17T16:01:20.886Z,4.00
2023-03-17T16:03:48.996Z,5.10
2023-03-17T16:06:24.194Z,5.00
2023-03-17T16:08:51.694Z,6.35
2023-03-17T16:11:30.121Z,4.90
2023-03-17T16:13:59.662Z,3.90
2023-03-17T16:16:37.339Z,3.75
2023-03-17T16:19:20.216Z,4.78
2023-03-17T16:21:47.745Z,4.50
2023-03-17T16:24:22.791Z,7.53
2023-03-17T16:26:50.505Z,5.57
2023-03-17T16:29:19.841Z,5.70
2023-03-17T16:31:50.173Z,5.50
2023-03-17T16:34:23.414Z,4.85
2023-03-17T16:36:50.937Z,5.45
2023-03-17T16:39:19.552Z,5.70
2023-03-17T16:41:48.662Z,5.38
2023-03-17T16:44:20.976Z,5.07
2023-03-17T16:46:48.893Z,4.97
2023-03-17T16:49:20.932Z,5.28
2023-03-17T16:51:49.471Z,5.78
2023-03-17T16:54:17.283Z,5.47
2023-03-17T16:56:44.918Z,5.22
2023-03-17T16:59:20.803Z,6.18
2023-03-17T17:01:47.848Z,4.90
2023-03-17T17:04:14.703Z,4.97
2023-03-17T17:06:41.447Z,4.70
2023-03-17T17:09:08.355Z,5.15
2023-03-17T17:11:35.343Z,4.43
2023-03-17T17:14:02.296Z,4.72
2023-03-17T17:16:34.405Z,4.15
2023-03-17T17:19:03.717Z,4.60
2023-03-17T17:21:31.995Z,4.28
2023-03-17T17:23:58.941Z,4.22
2023-03-17T17:26:25.840Z,3.72
2023-03-17T17:28:52.656Z,4.30
2023-03-17T17:31:19.826Z,2.17
2023-03-17T17:33:46.685Z,2.00
2023-03-17T17:36:16.999Z,2.50
2023-03-17T17:38:44.037Z,1.80
2023-03-17T17:41:13.068Z,1.95
2023-03-17T17:43:41.080Z,1.80
2023-03-17T17:46:20.357Z,1.50
2023-03-17T17:48:47.796Z,1.92
2023-03-17T17:51:14.902Z,1.83
2023-03-17T17:53:41.791Z,1.40
2023-03-17T17:56:15.051Z,1.67
2023-03-17T17:58:42.663Z,1.63
2023-03-17T18:01:12.994Z,1.52
2023-03-17T18:03:42.716Z,2.00
2023-03-17T18:06:10.359Z,2.53
2023-03-17T18:08:37.265Z,2.58
2023-03-17T18:11:04.242Z,2.50
2023-03-17T18:13:31.244Z,1.60
2023-03-17T18:15:58.509Z,1.85
2023-03-17T18:18:25.351Z,2.00
2023-03-17T18:20:53.828Z,1.90
2023-03-17T18:23:21.600Z,1.77
2023-03-17T18:25:49.331Z,2.03
2023-03-17T18:28:17.188Z,2.10
2023-03-17T18:30:45.153Z,3.42
2023-03-17T18:33:19.980Z,2.63
2023-03-17T18:35:52.166Z,1.95
2023-03-17T18:38:19.157Z,2.50
2023-03-17T18:40:46.413Z,1.77
2023-03-17T18:43:13.474Z,2.20
2023-03-17T18:45:40.484Z,2.25
2023-03-17T18:48:07.366Z,1.60
2023-03-17T18:50:34.323Z,1.75
2023-03-17T18:53:01.292Z,2.38
2023-03-17T18:55:28.170Z,2.42
2023-03-17T18:57:55.050Z,1.80
2023-03-17T19:00:25.202Z,1.90
2023-03-17T19:02:52.912Z,1.60
2023-03-17T19:05:20.574Z,1.98
2023-03-17T19:07:47.526Z,2.50
2023-03-17T19:10:15.383Z,2.08
2023-03-17T19:12:44.466Z,1.92
2023-03-17T19:15:12.844Z,2.30
2023-03-17T19:17:40.297Z,2.22
2023-03-17T19:20:08.719Z,2.30
2023-03-17T19:22:35.753Z,2.22
2023-03-17T19:25:04.344Z,2.72
2023-03-17T19:27:31.376Z,2.47
2023-03-17T19:29:58.373Z,2.60
2023-03-17T19:32:25.357Z,2.63
2023-03-17T19:34:52.456Z,3.00
2023-03-17T19:37:19.359Z,1.75
2023-03-17T19:39:46.224Z,2.42
2023-03-17T19:42:13.340Z,2.38
2023-03-17T19:44:40.656Z,2.10
2023-03-17T19:47:08.388Z,2.63
2023-03-17T19:49:37.418Z,2.20
2023-03-17T19:52:06.544Z,2.72
2023-03-17T19:54:34.313Z,2.17
2023-03-17T19:57:01.255Z,2.22
2023-03-17T19:59:28.112Z,2.10
2023-03-17T20:01:55.610Z,2.28
2023-03-17T20:04:23.207Z,2.20
2023-03-17T20:06:55.375Z,1.90
2023-03-17T20:09:25.408Z,2.70
2023-03-17T20:11:54.547Z,2.47
2023-03-17T20:14:21.692Z,2.80
2023-03-17T20:16:49.298Z,2.38
2023-03-17T20:19:16.496Z,2.92
2023-03-17T20:21:43.862Z,3.13
2023-03-17T20:24:12.940Z,2.83
2023-03-17T20:26:40.930Z,2.65
2023-03-17T20:29:08.638Z,2.47
2023-03-17T20:31:37.505Z,2.60
2023-03-17T20:34:05.055Z,2.35
2023-03-17T20:36:31.978Z,2.35
2023-03-17T20:38:59.039Z,2.72
2023-03-17T20:41:25.910Z,2.65
2023-03-17T20:43:53.123Z,1.80
2023-03-17T20:46:24.185Z,2.60
2023-03-17T20:48:58.360Z,2.50
2023-03-17T20:51:27.014Z,2.60
2023-03-17T20:53:55.012Z,2.53
2023-03-17T20:56:24.178Z,2.38
2023-03-17T20:58:53.243Z,2.72
2023-03-17T21:01:21.718Z,2.35
2023-03-17T21:03:50.300Z,2.92
2023-03-17T21:06:18.329Z,3.05
2023-03-17T21:08:46.215Z,2.17
2023-03-17T21:11:19.692Z,2.10
2023-03-17T21:13:47.135Z,2.20
2023-03-17T21:16:27.741Z,2.60
2023-03-17T21:18:54.775Z,3.13
2023-03-17T21:21:22.826Z,2.80
2023-03-17T21:23:49.785Z,3.13
2023-03-17T21:26:17.351Z,4.03
2023-03-17T21:28:44.544Z,3.55
2023-03-17T21:31:13.344Z,2.70
2023-03-17T21:33:40.354Z,3.47
2023-03-17T21:36:07.788Z,3.42
2023-03-17T21:38:34.983Z,4.30
2023-03-17T21:41:33.358Z,3.75
2023-03-17T21:44:02.240Z,3.60
2023-03-17T21:46:29.776Z,3.85
2023-03-17T21:48:56.970Z,4.43
2023-03-17T21:51:25.148Z,4.07
2023-03-17T21:53:53.045Z,4.63
2023-03-17T21:56:20.804Z,3.33
2023-03-17T21:58:49.005Z,4.28
2023-03-17T22:01:18.626Z,3.85
2023-03-17T22:03:45.465Z,3.50
2023-03-17T22:06:13.924Z,4.80
2023-03-17T22:08:41.173Z,3.60
2023-03-17T22:11:13.456Z,4.20
2023-03-17T22:13:41.421Z,4.40
2023-03-17T22:16:10.502Z,4.53
2023-03-17T22:18:38.213Z,4.28
2023-03-17T22:21:08.190Z,3.88
2023-03-17T22:23:41.108Z,4.15
2023-03-17T22:26:12.565Z,3.92
2023-03-17T22:28:40.753Z,4.40
2023-03-17T22:31:23.818Z,5.50
2023-03-17T22:33:55.356Z,3.78
2023-03-17T22:36:24.465Z,5.55
2023-03-17T22:38:51.637Z,5.15
2023-03-17T22:41:24.420Z,5.38
2023-03-17T22:43:51.974Z,5.25
2023-03-17T22:46:20.803Z,6.22
2023-03-17T22:48:48.704Z,5.63
2023-03-17T22:51:20.979Z,5.68
2023-03-17T22:53:49.280Z,5.65
2023-03-17T22:56:18.242Z,5.80
2023-03-17T22:58:46.824Z,5.72
2023-03-17T23:01:16.751Z,5.80
2023-03-17T23:03:45.204Z,5.40
2023-03-17T23:06:13.248Z,5.30
2023-03-17T23:08:42.764Z,5.82
2023-03-17T23:11:21.183Z,5.88
2023-03-17T23:13:49.265Z,6.18
2023-03-17T23:16:17.151Z,6.65
2023-03-17T23:18:46.811Z,6.43
2023-03-17T23:21:36.732Z,6.65
2023-03-17T23:24:05.788Z,7.25
2023-03-17T23:26:35.074Z,7.10
2023-03-17T23:29:03.380Z,7.13
2023-03-17T23:31:30.306Z,5.65
2023-03-17T23:33:57.157Z,6.35
2023-03-17T23:36:24.309Z,7.22
2023-03-17T23:38:52.265Z,7.03
2023-03-17T23:41:19.399Z,7.35
2023-03-17T23:43:46.821Z,7.13
2023-03-17T23:46:14.753Z,6.60
2023-03-17T23:48:42.953Z,6.70
2023-03-17T23:51:12.684Z,6.90
2023-03-17T23:53:39.858Z,7.32
2023-03-17T23:56:08.435Z,5.93
2023-03-17T23:58:36.197Z,7.45
